Terminal Aerodrome Forecast
Issued by NWS Tulsa, OK

Home | Current Version | Previous Version | Text Only | Print | Product List | Glossary On
Versions: 1 2 3 4 5 6 7 8 9 10 11 12
524
FTUS44 KTSA 231120
TAFFSM
TAF
KFSM 231120Z 2312/2412 06004KT P6SM SKC
     FM231800 15006KT P6SM SCT050 SCT100
     FM240200 09004KT P6SM SKC=

USA.gov is the U.S. government's official web portal to all federal, state and local government web resources and services.